sensor_id;sensor_type;location;lat;lon;timestamp;P1;durP1;ratioP1;P2;durP2;ratioP2
17949;SDS011;9100;48.700;9.316;2023-03-01T00:00:34;11.2;;;9.2;;
17949;SDS011;9100;48.700;9.316;2023-03-01T00:01:32;17.5;;;8.6;;
17949;SDS011;9100;48.700;9.316;2023-03-01T00:01:35;17.5;;;8.6;;
17949;SDS011;9100;48.700;9.316;2023-03-01T00:02:34;17.5;;;8.6;;
17949;SDS011;9100;48.700;9.316;2023-03-01T00:03:34;17.5;;;8.6;;
17949;SDS011;9100;48.700;9.316;2023-03-01T00:04:34;17.5;;;8.6;;
17949;SDS011;9100;48.700;9.316;2023-03-01T00:05:35;17.5;;;8.6;;
17949;SDS011;9100;48.700;9.316;2023-03-01T00:06:31;13;;;9.1;;
17949;SDS011;9100;48.700;9.316;2023-03-01T00:06:34;13;;;9.1;;
17949;SDS011;9100;48.700;9.316;2023-03-01T00:07:34;13;;;9.1;;
17949;SDS011;9100;48.700;9.316;2023-03-01T00:08:35;13;;;9.1;;
17949;SDS011;9100;48.700;9.316;2023-03-01T00:09:35;13;;;9.1;;
17949;SDS011;9100;48.700;9.316;2023-03-01T00:10:34;13;;;9.1;;
17949;SDS011;9100;48.700;9.316;2023-03-01T00:11:31;7.8;;;7.1;;
17949;SDS011;9100;48.700;9.316;2023-03-01T00:11:34;7.8;;;7.1;;
17949;SDS011;9100;48.700;9.316;2023-03-01T00:12:34;7.8;;;7.1;;
17949;SDS011;9100;48.700;9.316;2023-03-01T00:13:35;7.8;;;7.1;;
17949;SDS011;9100;48.700;9.316;2023-03-01T00:14:35;7.8;;;7.1;;
17949;SDS011;9100;48.700;9.316;2023-03-01T00:15:37;7.8;;;7.1;;
17949;SDS011;9100;48.700;9.316;2023-03-01T00:16:32;13.9;;;8.5;;
17949;SDS011;9100;48.700;9.316;2023-03-01T00:16:35;13.9;;;8.5;;
17949;SDS011;9100;48.700;9.316;2023-03-01T00:17:35;13.9;;;8.5;;
17949;SDS011;9100;48.700;9.316;2023-03-01T00:18:34;13.9;;;8.5;;
17949;SDS011;9100;48.700;9.316;2023-03-01T00:19:34;13.9;;;8.5;;
17949;SDS011;9100;48.700;9.316;2023-03-01T00:20:34;13.9;;;8.5;;
17949;SDS011;9100;48.700;9.316;2023-03-01T00:21:31;10.5;;;8.5;;
17949;SDS011;9100;48.700;9.316;2023-03-01T00:21:35;10.5;;;8.5;;
17949;SDS011;9100;48.700;9.316;2023-03-01T00:22:34;10.5;;;8.5;;
17949;SDS011;9100;48.700;9.316;2023-03-01T00:23:35;10.5;;;8.5;;
17949;SDS011;9100;48.700;9.316;2023-03-01T00:24:34;10.5;;;8.5;;
17949;SDS011;9100;48.700;9.316;2023-03-01T00:25:40;10.5;;;8.5;;
17949;SDS011;9100;48.700;9.316;2023-03-01T00:26:31;8.6;;;7.8;;
17949;SDS011;9100;48.700;9.316;2023-03-01T00:26:35;8.6;;;7.8;;
17949;SDS011;9100;48.700;9.316;2023-03-01T00:27:34;8.6;;;7.8;;
17949;SDS011;9100;48.700;9.316;2023-03-01T00:28:34;8.6;;;7.8;;
17949;SDS011;9100;48.700;9.316;2023-03-01T00:29:34;8.6;;;7.8;;
17949;SDS011;9100;48.700;9.316;2023-03-01T00:30:35;8.6;;;7.8;;
17949;SDS011;9100;48.700;9.316;2023-03-01T00:31:31;9.3;;;8.2;;
17949;SDS011;9100;48.700;9.316;2023-03-01T00:31:34;9.3;;;8.2;;
17949;SDS011;9100;48.700;9.316;2023-03-01T00:32:34;9.3;;;8.2;;
17949;SDS011;9100;48.700;9.316;2023-03-01T00:33:34;9.3;;;8.2;;
17949;SDS011;9100;48.700;9.316;2023-03-01T00:34:34;9.3;;;8.2;;
17949;SDS011;9100;48.700;9.316;2023-03-01T00:35:34;9.3;;;8.2;;
17949;SDS011;9100;48.700;9.316;2023-03-01T00:36:32;8.9;;;8;;
17949;SDS011;9100;48.700;9.316;2023-03-01T00:36:36;8.9;;;8;;
17949;SDS011;9100;48.700;9.316;2023-03-01T00:37:35;8.9;;;8;;
17949;SDS011;9100;48.700;9.316;2023-03-01T00:38:35;8.9;;;8;;
17949;SDS011;9100;48.700;9.316;2023-03-01T00:39:34;8.9;;;8;;
17949;SDS011;9100;48.700;9.316;2023-03-01T00:40:35;8.9;;;8;;
17949;SDS011;9100;48.700;9.316;2023-03-01T00:41:31;12.1;;;8.3;;
17949;SDS011;9100;48.700;9.316;2023-03-01T00:41:34;12.1;;;8.3;;
17949;SDS011;9100;48.700;9.316;2023-03-01T00:42:34;12.1;;;8.3;;
17949;SDS011;9100;48.700;9.316;2023-03-01T00:43:34;12.1;;;8.3;;
17949;SDS011;9100;48.700;9.316;2023-03-01T00:44:35;12.1;;;8.3;;
17949;SDS011;9100;48.700;9.316;2023-03-01T00:45:34;12.1;;;8.3;;
17949;SDS011;9100;48.700;9.316;2023-03-01T00:46:31;10.2;;;8;;
17949;SDS011;9100;48.700;9.316;2023-03-01T00:46:34;10.2;;;8;;
17949;SDS011;9100;48.700;9.316;2023-03-01T00:47:34;10.2;;;8;;
17949;SDS011;9100;48.700;9.316;2023-03-01T00:48:35;10.2;;;8;;
17949;SDS011;9100;48.700;9.316;2023-03-01T00:49:34;10.2;;;8;;
17949;SDS011;9100;48.700;9.316;2023-03-01T00:50:34;10.2;;;8;;
17949;SDS011;9100;48.700;9.316;2023-03-01T00:51:31;9.7;;;8.7;;
17949;SDS011;9100;48.700;9.316;2023-03-01T00:51:34;9.7;;;8.7;;
17949;SDS011;9100;48.700;9.316;2023-03-01T00:52:34;9.7;;;8.7;;
17949;SDS011;9100;48.700;9.316;2023-03-01T00:53:35;9.7;;;8.7;;
17949;SDS011;9100;48.700;9.316;2023-03-01T00:54:34;9.7;;;8.7;;
17949;SDS011;9100;48.700;9.316;2023-03-01T00:55:35;9.7;;;8.7;;
17949;SDS011;9100;48.700;9.316;2023-03-01T00:56:31;12.4;;;9.2;;
17949;SDS011;9100;48.700;9.316;2023-03-01T00:56:34;12.4;;;9.2;;
17949;SDS011;9100;48.700;9.316;2023-03-01T00:57:34;12.4;;;9.2;;
17949;SDS011;9100;48.700;9.316;2023-03-01T00:58:34;12.4;;;9.2;;
17949;SDS011;9100;48.700;9.316;2023-03-01T00:59:34;12.4;;;9.2;;
17949;SDS011;9100;48.700;9.316;2023-03-01T01:00:34;12.4;;;9.2;;
17949;SDS011;9100;48.700;9.316;2023-03-01T01:01:32;12.5;;;9.4;;
17949;SDS011;9100;48.700;9.316;2023-03-01T01:01:34;12.5;;;9.4;;
17949;SDS011;9100;48.700;9.316;2023-03-01T01:02:35;12.5;;;9.4;;
17949;SDS011;9100;48.700;9.316;2023-03-01T01:03:34;12.5;;;9.4;;
17949;SDS011;9100;48.700;9.316;2023-03-01T01:04:34;12.5;;;9.4;;
17949;SDS011;9100;48.700;9.316;2023-03-01T01:05:34;12.5;;;9.4;;
17949;SDS011;9100;48.700;9.316;2023-03-01T01:06:32;11.2;;;8.9;;
17949;SDS011;9100;48.700;9.316;2023-03-01T01:06:35;11.2;;;8.9;;
17949;SDS011;9100;48.700;9.316;2023-03-01T01:07:34;11.2;;;8.9;;
17949;SDS011;9100;48.700;9.316;2023-03-01T01:08:34;11.2;;;8.9;;
17949;SDS011;9100;48.700;9.316;2023-03-01T01:09:34;11.2;;;8.9;;
17949;SDS011;9100;48.700;9.316;2023-03-01T01:10:34;11.2;;;8.9;;
17949;SDS011;9100;48.700;9.316;2023-03-01T01:11:31;8.7;;;7.9;;
17949;SDS011;9100;48.700;9.316;2023-03-01T01:11:35;8.7;;;7.9;;
17949;SDS011;9100;48.700;9.316;2023-03-01T01:12:34;8.7;;;7.9;;
17949;SDS011;9100;48.700;9.316;2023-03-01T01:13:34;8.7;;;7.9;;
17949;SDS011;9100;48.700;9.316;2023-03-01T01:14:34;8.7;;;7.9;;
17949;SDS011;9100;48.700;9.316;2023-03-01T01:15:34;8.7;;;7.9;;
17949;SDS011;9100;48.700;9.316;2023-03-01T01:16:31;10.3;;;8.3;;
17949;SDS011;9100;48.700;9.316;2023-03-01T01:16:35;10.3;;;8.3;;
17949;SDS011;9100;48.700;9.316;2023-03-01T01:17:35;10.3;;;8.3;;
17949;SDS011;9100;48.700;9.316;2023-03-01T01:18:34;10.3;;;8.3;;
17949;SDS011;9100;48.700;9.316;2023-03-01T01:19:34;10.3;;;8.3;;
17949;SDS011;9100;48.700;9.316;2023-03-01T01:20:35;10.3;;;8.3;;
17949;SDS011;9100;48.700;9.316;2023-03-01T01:21:31;12.4;;;9.6;;
17949;SDS011;9100;48.700;9.316;2023-03-01T01:21:34;12.4;;;9.6;;
17949;SDS011;9100;48.700;9.316;2023-03-01T01:22:34;12.4;;;9.6;;
17949;SDS011;9100;48.700;9.316;2023-03-01T01:23:34;12.4;;;9.6;;
17949;SDS011;9100;48.700;9.316;2023-03-01T01:24:35;12.4;;;9.6;;
17949;SDS011;9100;48.700;9.316;2023-03-01T01:25:35;12.4;;;9.6;;
17949;SDS011;9100;48.700;9.316;2023-03-01T01:26:31;29.2;;;9.6;;
17949;SDS011;9100;48.700;9.316;2023-03-01T01:26:34;29.2;;;9.6;;
17949;SDS011;9100;48.700;9.316;2023-03-01T01:27:34;29.2;;;9.6;;
17949;SDS011;9100;48.700;9.316;2023-03-01T01:28:35;29.2;;;9.6;;
17949;SDS011;9100;48.700;9.316;2023-03-01T01:29:34;29.2;;;9.6;;
17949;SDS011;9100;48.700;9.316;2023-03-01T01:30:34;29.2;;;9.6;;
17949;SDS011;9100;48.700;9.316;2023-03-01T01:31:31;10.7;;;8.8;;
17949;SDS011;9100;48.700;9.316;2023-03-01T01:31:35;10.7;;;8.8;;
17949;SDS011;9100;48.700;9.316;2023-03-01T01:32:34;10.7;;;8.8;;
17949;SDS011;9100;48.700;9.316;2023-03-01T01:33:34;10.7;;;8.8;;
17949;SDS011;9100;48.700;9.316;2023-03-01T01:34:34;10.7;;;8.8;;
17949;SDS011;9100;48.700;9.316;2023-03-01T01:35:35;10.7;;;8.8;;
17949;SDS011;9100;48.700;9.316;2023-03-01T01:36:31;10.9;;;9.2;;
17949;SDS011;9100;48.700;9.316;2023-03-01T01:36:35;10.9;;;9.2;;
17949;SDS011;9100;48.700;9.316;2023-03-01T01:37:34;10.9;;;9.2;;
17949;SDS011;9100;48.700;9.316;2023-03-01T01:38:34;10.9;;;9.2;;
17949;SDS011;9100;48.700;9.316;2023-03-01T01:39:34;10.9;;;9.2;;
17949;SDS011;9100;48.700;9.316;2023-03-01T01:40:35;10.9;;;9.2;;
17949;SDS011;9100;48.700;9.316;2023-03-01T01:41:31;12.2;;;9.4;;
17949;SDS011;9100;48.700;9.316;2023-03-01T01:41:34;12.2;;;9.4;;
17949;SDS011;9100;48.700;9.316;2023-03-01T01:42:34;12.2;;;9.4;;
17949;SDS011;9100;48.700;9.316;2023-03-01T01:43:35;12.2;;;9.4;;
17949;SDS011;9100;48.700;9.316;2023-03-01T01:44:35;12.2;;;9.4;;
17949;SDS011;9100;48.700;9.316;2023-03-01T01:45:35;12.2;;;9.4;;
17949;SDS011;9100;48.700;9.316;2023-03-01T01:46:31;8.9;;;8.1;;
17949;SDS011;9100;48.700;9.316;2023-03-01T01:46:35;8.9;;;8.1;;
17949;SDS011;9100;48.700;9.316;2023-03-01T01:47:34;8.9;;;8.1;;
17949;SDS011;9100;48.700;9.316;2023-03-01T01:48:37;8.9;;;8.1;;
17949;SDS011;9100;48.700;9.316;2023-03-01T01:49:35;8.9;;;8.1;;
17949;SDS011;9100;48.700;9.316;2023-03-01T01:50:34;8.9;;;8.1;;
17949;SDS011;9100;48.700;9.316;2023-03-01T01:51:32;14.5;;;9.8;;
17949;SDS011;9100;48.700;9.316;2023-03-01T01:51:35;14.5;;;9.8;;
17949;SDS011;9100;48.700;9.316;2023-03-01T01:52:35;14.5;;;9.8;;
17949;SDS011;9100;48.700;9.316;2023-03-01T01:53:34;14.5;;;9.8;;
17949;SDS011;9100;48.700;9.316;2023-03-01T01:54:37;14.5;;;9.8;;
17949;SDS011;9100;48.700;9.316;2023-03-01T01:55:34;14.5;;;9.8;;
17949;SDS011;9100;48.700;9.316;2023-03-01T01:56:31;10.9;;;9.7;;
17949;SDS011;9100;48.700;9.316;2023-03-01T01:56:34;10.9;;;9.7;;
17949;SDS011;9100;48.700;9.316;2023-03-01T01:57:36;10.9;;;9.7;;
17949;SDS011;9100;48.700;9.316;2023-03-01T01:58:34;10.9;;;9.7;;
17949;SDS011;9100;48.700;9.316;2023-03-01T01:59:34;10.9;;;9.7;;
17949;SDS011;9100;48.700;9.316;2023-03-01T02:00:34;10.9;;;9.7;;
17949;SDS011;9100;48.700;9.316;2023-03-01T02:01:32;9.9;;;8.7;;
17949;SDS011;9100;48.700;9.316;2023-03-01T02:01:35;9.9;;;8.7;;
17949;SDS011;9100;48.700;9.316;2023-03-01T02:02:34;9.9;;;8.7;;
17949;SDS011;9100;48.700;9.316;2023-03-01T02:03:34;9.9;;;8.7;;
17949;SDS011;9100;48.700;9.316;2023-03-01T02:04:34;9.9;;;8.7;;
17949;SDS011;9100;48.700;9.316;2023-03-01T02:05:36;9.9;;;8.7;;
17949;SDS011;9100;48.700;9.316;2023-03-01T02:06:32;8.6;;;7.7;;
17949;SDS011;9100;48.700;9.316;2023-03-01T02:06:36;8.6;;;7.7;;
17949;SDS011;9100;48.700;9.316;2023-03-01T02:07:34;8.6;;;7.7;;
17949;SDS011;9100;48.700;9.316;2023-03-01T02:08:35;8.6;;;7.7;;
17949;SDS011;9100;48.700;9.316;2023-03-01T02:09:35;8.6;;;7.7;;
17949;SDS011;9100;48.700;9.316;2023-03-01T02:10:35;8.6;;;7.7;;
17949;SDS011;9100;48.700;9.316;2023-03-01T02:11:31;12;;;9.2;;
17949;SDS011;9100;48.700;9.316;2023-03-01T02:11:34;12;;;9.2;;
17949;SDS011;9100;48.700;9.316;2023-03-01T02:12:34;12;;;9.2;;
17949;SDS011;9100;48.700;9.316;2023-03-01T02:13:35;12;;;9.2;;
17949;SDS011;9100;48.700;9.316;2023-03-01T02:14:34;12;;;9.2;;
17949;SDS011;9100;48.700;9.316;2023-03-01T02:15:35;12;;;9.2;;
17949;SDS011;9100;48.700;9.316;2023-03-01T02:16:31;10.3;;;9.2;;
17949;SDS011;9100;48.700;9.316;2023-03-01T02:16:34;10.3;;;9.2;;
17949;SDS011;9100;48.700;9.316;2023-03-01T02:17:34;10.3;;;9.2;;
17949;SDS011;9100;48.700;9.316;2023-03-01T02:18:34;10.3;;;9.2;;
17949;SDS011;9100;48.700;9.316;2023-03-01T02:19:39;10.3;;;9.2;;
17949;SDS011;9100;48.700;9.316;2023-03-01T02:20:35;10.3;;;9.2;;
17949;SDS011;9100;48.700;9.316;2023-03-01T02:21:35;12.3;;;8.8;;
17949;SDS011;9100;48.700;9.316;2023-03-01T02:21:37;12.3;;;8.8;;
17949;SDS011;9100;48.700;9.316;2023-03-01T02:22:35;12.3;;;8.8;;
17949;SDS011;9100;48.700;9.316;2023-03-01T02:23:34;12.3;;;8.8;;
17949;SDS011;9100;48.700;9.316;2023-03-01T02:24:36;12.3;;;8.8;;
17949;SDS011;9100;48.700;9.316;2023-03-01T02:25:36;12.3;;;8.8;;
17949;SDS011;9100;48.700;9.316;2023-03-01T02:26:33;11.7;;;9.8;;
17949;SDS011;9100;48.700;9.316;2023-03-01T02:26:36;11.7;;;9.8;;
17949;SDS011;9100;48.700;9.316;2023-03-01T02:27:37;11.7;;;9.8;;
17949;SDS011;9100;48.700;9.316;2023-03-01T02:28:35;11.7;;;9.8;;
17949;SDS011;9100;48.700;9.316;2023-03-01T02:29:34;11.7;;;9.8;;
17949;SDS011;9100;48.700;9.316;2023-03-01T02:30:34;11.7;;;9.8;;
17949;SDS011;9100;48.700;9.316;2023-03-01T02:31:31;9.9;;;8.9;;
17949;SDS011;9100;48.700;9.316;2023-03-01T02:31:34;9.9;;;8.9;;
17949;SDS011;9100;48.700;9.316;2023-03-01T02:32:34;9.9;;;8.9;;
17949;SDS011;9100;48.700;9.316;2023-03-01T02:33:35;9.9;;;8.9;;
17949;SDS011;9100;48.700;9.316;2023-03-01T02:34:34;9.9;;;8.9;;
17949;SDS011;9100;48.700;9.316;2023-03-01T02:35:35;9.9;;;8.9;;
17949;SDS011;9100;48.700;9.316;2023-03-01T02:36:31;11.9;;;9.2;;
17949;SDS011;9100;48.700;9.316;2023-03-01T02:36:35;11.9;;;9.2;;
17949;SDS011;9100;48.700;9.316;2023-03-01T02:37:34;11.9;;;9.2;;
17949;SDS011;9100;48.700;9.316;2023-03-01T02:38:35;11.9;;;9.2;;
17949;SDS011;9100;48.700;9.316;2023-03-01T02:39:37;11.9;;;9.2;;
17949;SDS011;9100;48.700;9.316;2023-03-01T02:40:35;11.9;;;9.2;;
17949;SDS011;9100;48.700;9.316;2023-03-01T02:41:32;10.5;;;9.4;;
17949;SDS011;9100;48.700;9.316;2023-03-01T02:41:35;10.5;;;9.4;;
17949;SDS011;9100;48.700;9.316;2023-03-01T02:42:35;10.5;;;9.4;;
17949;SDS011;9100;48.700;9.316;2023-03-01T02:43:34;10.5;;;9.4;;
17949;SDS011;9100;48.700;9.316;2023-03-01T02:44:34;10.5;;;9.4;;
17949;SDS011;9100;48.700;9.316;2023-03-01T02:45:34;10.5;;;9.4;;
17949;SDS011;9100;48.700;9.316;2023-03-01T02:46:31;14.6;;;9.5;;
17949;SDS011;9100;48.700;9.316;2023-03-01T02:46:41;14.6;;;9.5;;
17949;SDS011;9100;48.700;9.316;2023-03-01T02:47:34;14.6;;;9.5;;
17949;SDS011;9100;48.700;9.316;2023-03-01T02:48:39;14.6;;;9.5;;
17949;SDS011;9100;48.700;9.316;2023-03-01T02:49:35;14.6;;;9.5;;
17949;SDS011;9100;48.700;9.316;2023-03-01T02:50:42;14.6;;;9.5;;
17949;SDS011;9100;48.700;9.316;2023-03-01T02:51:37;13.1;;;8.9;;
17949;SDS011;9100;48.700;9.316;2023-03-01T02:51:39;13.1;;;8.9;;
17949;SDS011;9100;48.700;9.316;2023-03-01T02:52:37;13.1;;;8.9;;
17949;SDS011;9100;48.700;9.316;2023-03-01T02:53:35;13.1;;;8.9;;
17949;SDS011;9100;48.700;9.316;2023-03-01T02:54:36;13.1;;;8.9;;
17949;SDS011;9100;48.700;9.316;2023-03-01T02:55:34;13.1;;;8.9;;
17949;SDS011;9100;48.700;9.316;2023-03-01T02:56:31;12.6;;;9;;
17949;SDS011;9100;48.700;9.316;2023-03-01T02:56:34;12.6;;;9;;
17949;SDS011;9100;48.700;9.316;2023-03-01T02:57:35;12.6;;;9;;
17949;SDS011;9100;48.700;9.316;2023-03-01T02:58:34;12.6;;;9;;
17949;SDS011;9100;48.700;9.316;2023-03-01T02:59:35;12.6;;;9;;
17949;SDS011;9100;48.700;9.316;2023-03-01T03:00:35;12.6;;;9;;
17949;SDS011;9100;48.700;9.316;2023-03-01T03:01:31;11.9;;;9.7;;
17949;SDS011;9100;48.700;9.316;2023-03-01T03:01:34;11.9;;;9.7;;
17949;SDS011;9100;48.700;9.316;2023-03-01T03:02:35;11.9;;;9.7;;
17949;SDS011;9100;48.700;9.316;2023-03-01T03:03:34;11.9;;;9.7;;
17949;SDS011;9100;48.700;9.316;2023-03-01T03:04:34;11.9;;;9.7;;
17949;SDS011;9100;48.700;9.316;2023-03-01T03:05:34;11.9;;;9.7;;
17949;SDS011;9100;48.700;9.316;2023-03-01T03:06:31;10;;;9;;
17949;SDS011;9100;48.700;9.316;2023-03-01T03:06:35;10;;;9;;
17949;SDS011;9100;48.700;9.316;2023-03-01T03:07:35;10;;;9;;
17949;SDS011;9100;48.700;9.316;2023-03-01T03:08:34;10;;;9;;
17949;SDS011;9100;48.700;9.316;2023-03-01T03:09:34;10;;;9;;
17949;SDS011;9100;48.700;9.316;2023-03-01T03:10:36;10;;;9;;
17949;SDS011;9100;48.700;9.316;2023-03-01T03:11:31;13.2;;;10.4;;
17949;SDS011;9100;48.700;9.316;2023-03-01T03:11:34;13.2;;;10.4;;
17949;SDS011;9100;48.700;9.316;2023-03-01T03:12:34;13.2;;;10.4;;
17949;SDS011;9100;48.700;9.316;2023-03-01T03:13:34;13.2;;;10.4;;
17949;SDS011;9100;48.700;9.316;2023-03-01T03:14:34;13.2;;;10.4;;
17949;SDS011;9100;48.700;9.316;2023-03-01T03:15:34;13.2;;;10.4;;
17949;SDS011;9100;48.700;9.316;2023-03-01T03:16:31;11.4;;;9.5;;
17949;SDS011;9100;48.700;9.316;2023-03-01T03:16:35;11.4;;;9.5;;
17949;SDS011;9100;48.700;9.316;2023-03-01T03:17:35;11.4;;;9.5;;
17949;SDS011;9100;48.700;9.316;2023-03-01T03:18:34;11.4;;;9.5;;
17949;SDS011;9100;48.700;9.316;2023-03-01T03:19:35;11.4;;;9.5;;
17949;SDS011;9100;48.700;9.316;2023-03-01T03:20:35;11.4;;;9.5;;
17949;SDS011;9100;48.700;9.316;2023-03-01T03:21:31;10.8;;;9.4;;
17949;SDS011;9100;48.700;9.316;2023-03-01T03:21:34;10.8;;;9.4;;
17949;SDS011;9100;48.700;9.316;2023-03-01T03:22:34;10.8;;;9.4;;
17949;SDS011;9100;48.700;9.316;2023-03-01T03:23:34;10.8;;;9.4;;
17949;SDS011;9100;48.700;9.316;2023-03-01T03:24:34;10.8;;;9.4;;
17949;SDS011;9100;48.700;9.316;2023-03-01T03:25:34;10.8;;;9.4;;
17949;SDS011;9100;48.700;9.316;2023-03-01T03:26:31;10.7;;;9.6;;
17949;SDS011;9100;48.700;9.316;2023-03-01T03:26:34;10.7;;;9.6;;
17949;SDS011;9100;48.700;9.316;2023-03-01T03:27:35;10.7;;;9.6;;
17949;SDS011;9100;48.700;9.316;2023-03-01T03:28:34;10.7;;;9.6;;
17949;SDS011;9100;48.700;9.316;2023-03-01T03:29:34;10.7;;;9.6;;
17949;SDS011;9100;48.700;9.316;2023-03-01T03:30:35;10.7;;;9.6;;
17949;SDS011;9100;48.700;9.316;2023-03-01T03:31:31;10.8;;;9.2;;
17949;SDS011;9100;48.700;9.316;2023-03-01T03:31:34;10.8;;;9.2;;
17949;SDS011;9100;48.700;9.316;2023-03-01T03:32:34;10.8;;;9.2;;
17949;SDS011;9100;48.700;9.316;2023-03-01T03:33:35;10.8;;;9.2;;
17949;SDS011;9100;48.700;9.316;2023-03-01T03:34:34;10.8;;;9.2;;
17949;SDS011;9100;48.700;9.316;2023-03-01T03:35:38;10.8;;;9.2;;
17949;SDS011;9100;48.700;9.316;2023-03-01T03:36:31;10.8;;;9.4;;
17949;SDS011;9100;48.700;9.316;2023-03-01T03:36:34;10.8;;;9.4;;
17949;SDS011;9100;48.700;9.316;2023-03-01T03:37:35;10.8;;;9.4;;
17949;SDS011;9100;48.700;9.316;2023-03-01T03:38:34;10.8;;;9.4;;
17949;SDS011;9100;48.700;9.316;2023-03-01T03:39:34;10.8;;;9.4;;
17949;SDS011;9100;48.700;9.316;2023-03-01T03:40:35;10.8;;;9.4;;
17949;SDS011;9100;48.700;9.316;2023-03-01T03:41:31;12.5;;;9.7;;
17949;SDS011;9100;48.700;9.316;2023-03-01T03:41:34;12.5;;;9.7;;
17949;SDS011;9100;48.700;9.316;2023-03-01T03:42:35;12.5;;;9.7;;
17949;SDS011;9100;48.700;9.316;2023-03-01T03:43:35;12.5;;;9.7;;
17949;SDS011;9100;48.700;9.316;2023-03-01T03:44:34;12.5;;;9.7;;
17949;SDS011;9100;48.700;9.316;2023-03-01T03:45:35;12.5;;;9.7;;
17949;SDS011;9100;48.700;9.316;2023-03-01T03:46:32;10.7;;;9.6;;
17949;SDS011;9100;48.700;9.316;2023-03-01T03:46:34;10.7;;;9.6;;
17949;SDS011;9100;48.700;9.316;2023-03-01T03:47:34;10.7;;;9.6;;
17949;SDS011;9100;48.700;9.316;2023-03-01T03:48:35;10.7;;;9.6;;
17949;SDS011;9100;48.700;9.316;2023-03-01T03:49:34;10.7;;;9.6;;
17949;SDS011;9100;48.700;9.316;2023-03-01T03:50:34;10.7;;;9.6;;
17949;SDS011;9100;48.700;9.316;2023-03-01T03:51:32;12.6;;;10.4;;
17949;SDS011;9100;48.700;9.316;2023-03-01T03:51:34;12.6;;;10.4;;
17949;SDS011;9100;48.700;9.316;2023-03-01T03:52:34;12.6;;;10.4;;
17949;SDS011;9100;48.700;9.316;2023-03-01T03:53:34;12.6;;;10.4;;
17949;SDS011;9100;48.700;9.316;2023-03-01T03:54:35;12.6;;;10.4;;
17949;SDS011;9100;48.700;9.316;2023-03-01T03:55:34;12.6;;;10.4;;
17949;SDS011;9100;48.700;9.316;2023-03-01T03:56:31;13.9;;;10.2;;
17949;SDS011;9100;48.700;9.316;2023-03-01T03:56:34;13.9;;;10.2;;
17949;SDS011;9100;48.700;9.316;2023-03-01T03:57:34;13.9;;;10.2;;
17949;SDS011;9100;48.700;9.316;2023-03-01T03:58:34;13.9;;;10.2;;
17949;SDS011;9100;48.700;9.316;2023-03-01T03:59:34;13.9;;;10.2;;
17949;SDS011;9100;48.700;9.316;2023-03-01T04:00:35;13.9;;;10.2;;
17949;SDS011;9100;48.700;9.316;2023-03-01T04:01:31;11.7;;;10.6;;
17949;SDS011;9100;48.700;9.316;2023-03-01T04:01:34;11.7;;;10.6;;
17949;SDS011;9100;48.700;9.316;2023-03-01T04:02:34;11.7;;;10.6;;
17949;SDS011;9100;48.700;9.316;2023-03-01T04:03:34;11.7;;;10.6;;
17949;SDS011;9100;48.700;9.316;2023-03-01T04:04:34;11.7;;;10.6;;
17949;SDS011;9100;48.700;9.316;2023-03-01T04:05:35;11.7;;;10.6;;
17949;SDS011;9100;48.700;9.316;2023-03-01T04:06:32;14.1;;;10.2;;
17949;SDS011;9100;48.700;9.316;2023-03-01T04:06:34;14.1;;;10.2;;
17949;SDS011;9100;48.700;9.316;2023-03-01T04:07:34;14.1;;;10.2;;
17949;SDS011;9100;48.700;9.316;2023-03-01T04:08:34;14.1;;;10.2;;
17949;SDS011;9100;48.700;9.316;2023-03-01T04:09:34;14.1;;;10.2;;
17949;SDS011;9100;48.700;9.316;2023-03-01T04:10:35;14.1;;;10.2;;
17949;SDS011;9100;48.700;9.316;2023-03-01T04:11:31;11.2;;;9.6;;
17949;SDS011;9100;48.700;9.316;2023-03-01T04:11:34;11.2;;;9.6;;
17949;SDS011;9100;48.700;9.316;2023-03-01T04:12:34;11.2;;;9.6;;
17949;SDS011;9100;48.700;9.316;2023-03-01T04:13:34;11.2;;;9.6;;
17949;SDS011;9100;48.700;9.316;2023-03-01T04:14:35;11.2;;;9.6;;
17949;SDS011;9100;48.700;9.316;2023-03-01T04:15:34;11.2;;;9.6;;
17949;SDS011;9100;48.700;9.316;2023-03-01T04:16:31;13.9;;;10.6;;
17949;SDS011;9100;48.700;9.316;2023-03-01T04:16:34;13.9;;;10.6;;
17949;SDS011;9100;48.700;9.316;2023-03-01T04:17:34;13.9;;;10.6;;
17949;SDS011;9100;48.700;9.316;2023-03-01T04:18:34;13.9;;;10.6;;
17949;SDS011;9100;48.700;9.316;2023-03-01T04:19:34;13.9;;;10.6;;
17949;SDS011;9100;48.700;9.316;2023-03-01T04:20:35;13.9;;;10.6;;
17949;SDS011;9100;48.700;9.316;2023-03-01T04:21:31;14.4;;;10.4;;
17949;SDS011;9100;48.700;9.316;2023-03-01T04:21:34;14.4;;;10.4;;
17949;SDS011;9100;48.700;9.316;2023-03-01T04:22:35;14.4;;;10.4;;
17949;SDS011;9100;48.700;9.316;2023-03-01T04:23:34;14.4;;;10.4;;
17949;SDS011;9100;48.700;9.316;2023-03-01T04:24:34;14.4;;;10.4;;
17949;SDS011;9100;48.700;9.316;2023-03-01T04:25:34;14.4;;;10.4;;
17949;SDS011;9100;48.700;9.316;2023-03-01T04:26:31;15.5;;;11.1;;
17949;SDS011;9100;48.700;9.316;2023-03-01T04:26:35;15.5;;;11.1;;
17949;SDS011;9100;48.700;9.316;2023-03-01T04:27:35;15.5;;;11.1;;
17949;SDS011;9100;48.700;9.316;2023-03-01T04:28:35;15.5;;;11.1;;
17949;SDS011;9100;48.700;9.316;2023-03-01T04:29:34;15.5;;;11.1;;
17949;SDS011;9100;48.700;9.316;2023-03-01T04:30:35;15.5;;;11.1;;
17949;SDS011;9100;48.700;9.316;2023-03-01T04:31:31;14;;;10.8;;
17949;SDS011;9100;48.700;9.316;2023-03-01T04:31:34;14;;;10.8;;
17949;SDS011;9100;48.700;9.316;2023-03-01T04:32:34;14;;;10.8;;
17949;SDS011;9100;48.700;9.316;2023-03-01T04:33:34;14;;;10.8;;
17949;SDS011;9100;48.700;9.316;2023-03-01T04:34:34;14;;;10.8;;
17949;SDS011;9100;48.700;9.316;2023-03-01T04:35:35;14;;;10.8;;
17949;SDS011;9100;48.700;9.316;2023-03-01T04:36:31;13.4;;;11.1;;
17949;SDS011;9100;48.700;9.316;2023-03-01T04:36:34;13.4;;;11.1;;
17949;SDS011;9100;48.700;9.316;2023-03-01T04:37:34;13.4;;;11.1;;
17949;SDS011;9100;48.700;9.316;2023-03-01T04:38:35;13.4;;;11.1;;
17949;SDS011;9100;48.700;9.316;2023-03-01T04:39:34;13.4;;;11.1;;
17949;SDS011;9100;48.700;9.316;2023-03-01T04:40:35;13.4;;;11.1;;
17949;SDS011;9100;48.700;9.316;2023-03-01T04:41:31;14.8;;;9.5;;
17949;SDS011;9100;48.700;9.316;2023-03-01T04:41:35;14.8;;;9.5;;
17949;SDS011;9100;48.700;9.316;2023-03-01T04:42:34;14.8;;;9.5;;
17949;SDS011;9100;48.700;9.316;2023-03-01T04:43:34;14.8;;;9.5;;
17949;SDS011;9100;48.700;9.316;2023-03-01T04:44:34;14.8;;;9.5;;
17949;SDS011;9100;48.700;9.316;2023-03-01T04:45:35;14.8;;;9.5;;
17949;SDS011;9100;48.700;9.316;2023-03-01T04:46:31;13.9;;;10.7;;
17949;SDS011;9100;48.700;9.316;2023-03-01T04:46:35;13.9;;;10.7;;
17949;SDS011;9100;48.700;9.316;2023-03-01T04:47:34;13.9;;;10.7;;
17949;SDS011;9100;48.700;9.316;2023-03-01T04:48:35;13.9;;;10.7;;
17949;SDS011;9100;48.700;9.316;2023-03-01T04:49:35;13.9;;;10.7;;
17949;SDS011;9100;48.700;9.316;2023-03-01T04:50:34;13.9;;;10.7;;
17949;SDS011;9100;48.700;9.316;2023-03-01T04:51:31;11.6;;;10.2;;
17949;SDS011;9100;48.700;9.316;2023-03-01T04:51:34;11.6;;;10.2;;
17949;SDS011;9100;48.700;9.316;2023-03-01T04:52:35;11.6;;;10.2;;
17949;SDS011;9100;48.700;9.316;2023-03-01T04:53:34;11.6;;;10.2;;
17949;SDS011;9100;48.700;9.316;2023-03-01T04:54:35;11.6;;;10.2;;
17949;SDS011;9100;48.700;9.316;2023-03-01T04:55:34;11.6;;;10.2;;
17949;SDS011;9100;48.700;9.316;2023-03-01T04:56:31;13.4;;;10.4;;
17949;SDS011;9100;48.700;9.316;2023-03-01T04:56:34;13.4;;;10.4;;
17949;SDS011;9100;48.700;9.316;2023-03-01T04:57:34;13.4;;;10.4;;
17949;SDS011;9100;48.700;9.316;2023-03-01T04:58:35;13.4;;;10.4;;
17949;SDS011;9100;48.700;9.316;2023-03-01T04:59:34;13.4;;;10.4;;
17949;SDS011;9100;48.700;9.316;2023-03-01T05:00:34;13.4;;;10.4;;
17949;SDS011;9100;48.700;9.316;2023-03-01T05:01:31;12.2;;;10.9;;
17949;SDS011;9100;48.700;9.316;2023-03-01T05:01:34;12.2;;;10.9;;
17949;SDS011;9100;48.700;9.316;2023-03-01T05:02:34;12.2;;;10.9;;
17949;SDS011;9100;48.700;9.316;2023-03-01T05:03:34;12.2;;;10.9;;
17949;SDS011;9100;48.700;9.316;2023-03-01T05:04:34;12.2;;;10.9;;
17949;SDS011;9100;48.700;9.316;2023-03-01T05:05:36;12.2;;;10.9;;
17949;SDS011;9100;48.700;9.316;2023-03-01T05:06:31;15.8;;;10.7;;
17949;SDS011;9100;48.700;9.316;2023-03-01T05:06:34;15.8;;;10.7;;
17949;SDS011;9100;48.700;9.316;2023-03-01T05:07:34;15.8;;;10.7;;
17949;SDS011;9100;48.700;9.316;2023-03-01T05:08:34;15.8;;;10.7;;
17949;SDS011;9100;48.700;9.316;2023-03-01T05:09:34;15.8;;;10.7;;
17949;SDS011;9100;48.700;9.316;2023-03-01T05:10:35;15.8;;;10.7;;
17949;SDS011;9100;48.700;9.316;2023-03-01T05:11:32;12.2;;;10.5;;